sensor_id;sensor_type;location;lat;lon;timestamp;temperature;humidity
78448;SHT31;67742;51.972;5.682;2023-02-18T00:02:11;13.0;71.9
78448;SHT31;67742;51.972;5.682;2023-02-18T00:04:40;13.0;72.1
78448;SHT31;67742;51.972;5.682;2023-02-18T00:07:10;13.0;72.1
78448;SHT31;67742;51.972;5.682;2023-02-18T00:09:42;13.0;72.2
78448;SHT31;67742;51.972;5.682;2023-02-18T00:12:11;13.0;72.0
78448;SHT31;67742;51.972;5.682;2023-02-18T00:14:42;13.0;72.2
78448;SHT31;67742;51.972;5.682;2023-02-18T00:17:12;13.0;72.0
78448;SHT31;67742;51.972;5.682;2023-02-18T00:19:43;12.9;72.3
78448;SHT31;67742;51.972;5.682;2023-02-18T00:22:13;12.9;72.4
78448;SHT31;67742;51.972;5.682;2023-02-18T00:24:43;12.9;72.3
78448;SHT31;67742;51.972;5.682;2023-02-18T00:27:12;12.9;72.3
78448;SHT31;67742;51.972;5.682;2023-02-18T00:29:42;12.9;72.5
78448;SHT31;67742;51.972;5.682;2023-02-18T00:32:11;12.9;72.7
78448;SHT31;67742;51.972;5.682;2023-02-18T00:34:41;12.9;72.7
78448;SHT31;67742;51.972;5.682;2023-02-18T00:37:11;12.8;72.5
78448;SHT31;67742;51.972;5.682;2023-02-18T00:39:40;12.8;72.8
78448;SHT31;67742;51.972;5.682;2023-02-18T00:42:10;12.8;72.9
78448;SHT31;67742;51.972;5.682;2023-02-18T00:44:40;12.8;73.0
78448;SHT31;67742;51.972;5.682;2023-02-18T00:47:10;12.7;73.1
78448;SHT31;67742;51.972;5.682;2023-02-18T00:49:40;12.7;73.2
78448;SHT31;67742;51.972;5.682;2023-02-18T00:52:09;12.7;73.2
78448;SHT31;67742;51.972;5.682;2023-02-18T00:54:39;12.7;73.2
78448;SHT31;67742;51.972;5.682;2023-02-18T00:57:08;12.7;73.4
78448;SHT31;67742;51.972;5.682;2023-02-18T00:59:38;12.6;73.3
78448;SHT31;67742;51.972;5.682;2023-02-18T01:02:07;12.6;73.4
78448;SHT31;67742;51.972;5.682;2023-02-18T01:04:37;12.6;73.4
78448;SHT31;67742;51.972;5.682;2023-02-18T01:07:06;12.6;73.5
78448;SHT31;67742;51.972;5.682;2023-02-18T01:09:37;12.5;73.6
78448;SHT31;67742;51.972;5.682;2023-02-18T01:12:07;12.5;73.7
78448;SHT31;67742;51.972;5.682;2023-02-18T01:14:36;12.5;73.8
78448;SHT31;67742;51.972;5.682;2023-02-18T01:17:06;12.4;74.2
78448;SHT31;67742;51.972;5.682;2023-02-18T01:19:35;12.4;74.2
78448;SHT31;67742;51.972;5.682;2023-02-18T01:22:05;12.4;74.5
78448;SHT31;67742;51.972;5.682;2023-02-18T01:24:34;12.4;74.6
78448;SHT31;67742;51.972;5.682;2023-02-18T01:27:04;12.4;74.7
78448;SHT31;67742;51.972;5.682;2023-02-18T01:29:34;12.4;74.8
78448;SHT31;67742;51.972;5.682;2023-02-18T01:32:06;12.3;74.9
78448;SHT31;67742;51.972;5.682;2023-02-18T01:34:35;12.3;75.0
78448;SHT31;67742;51.972;5.682;2023-02-18T01:37:05;12.3;75.1
78448;SHT31;67742;51.972;5.682;2023-02-18T01:39:35;12.3;75.1
78448;SHT31;67742;51.972;5.682;2023-02-18T01:42:05;12.3;75.2
78448;SHT31;67742;51.972;5.682;2023-02-18T01:44:35;12.3;75.3
78448;SHT31;67742;51.972;5.682;2023-02-18T01:47:04;12.3;75.4
78448;SHT31;67742;51.972;5.682;2023-02-18T01:49:36;12.3;75.4
78448;SHT31;67742;51.972;5.682;2023-02-18T01:52:10;12.3;75.4
78448;SHT31;67742;51.972;5.682;2023-02-18T01:54:44;12.3;75.5
78448;SHT31;67742;51.972;5.682;2023-02-18T01:57:19;12.4;75.4
78448;SHT31;67742;51.972;5.682;2023-02-18T01:59:55;12.4;75.4
78448;SHT31;67742;51.972;5.682;2023-02-18T02:02:29;12.4;75.4
78448;SHT31;67742;51.972;5.682;2023-02-18T02:05:02;12.4;75.3
78448;SHT31;67742;51.972;5.682;2023-02-18T02:07:32;12.4;75.4
78448;SHT31;67742;51.972;5.682;2023-02-18T02:10:03;12.5;75.2
78448;SHT31;67742;51.972;5.682;2023-02-18T02:12:48;12.5;75.2
78448;SHT31;67742;51.972;5.682;2023-02-18T02:15:33;12.5;75.3
78448;SHT31;67742;51.972;5.682;2023-02-18T02:18:23;12.5;75.3
78448;SHT31;67742;51.972;5.682;2023-02-18T02:25:32;12.6;75.5
78448;SHT31;67742;51.972;5.682;2023-02-18T02:28:36;12.6;75.5
78448;SHT31;67742;51.972;5.682;2023-02-18T02:31:28;12.6;75.6
78448;SHT31;67742;51.972;5.682;2023-02-18T02:34:16;12.6;75.6
78448;SHT31;67742;51.972;5.682;2023-02-18T02:36:52;12.6;75.8
78448;SHT31;67742;51.972;5.682;2023-02-18T02:39:32;12.6;76.0
78448;SHT31;67742;51.972;5.682;2023-02-18T02:42:14;12.7;76.1
78448;SHT31;67742;51.972;5.682;2023-02-18T02:44:54;12.7;76.2
78448;SHT31;67742;51.972;5.682;2023-02-18T02:47:35;12.7;76.2
78448;SHT31;67742;51.972;5.682;2023-02-18T02:50:12;12.7;76.2
78448;SHT31;67742;51.972;5.682;2023-02-18T02:52:46;12.7;76.1
78448;SHT31;67742;51.972;5.682;2023-02-18T02:55:17;12.7;76.3
78448;SHT31;67742;51.972;5.682;2023-02-18T02:57:50;12.7;76.2
78448;SHT31;67742;51.972;5.682;2023-02-18T03:00:23;12.8;76.4
78448;SHT31;67742;51.972;5.682;2023-02-18T03:03:09;12.8;76.2
78448;SHT31;67742;51.972;5.682;2023-02-18T03:05:51;12.8;76.2
78448;SHT31;67742;51.972;5.682;2023-02-18T03:08:37;12.8;76.3
78448;SHT31;67742;51.972;5.682;2023-02-18T03:11:12;12.8;76.5
78448;SHT31;67742;51.972;5.682;2023-02-18T03:13:52;12.8;76.4
78448;SHT31;67742;51.972;5.682;2023-02-18T03:16:34;12.8;76.5
78448;SHT31;67742;51.972;5.682;2023-02-18T03:19:13;12.9;76.6
78448;SHT31;67742;51.972;5.682;2023-02-18T03:21:50;12.9;76.6
78448;SHT31;67742;51.972;5.682;2023-02-18T03:24:26;12.9;76.5
78448;SHT31;67742;51.972;5.682;2023-02-18T03:26:59;12.9;76.5
78448;SHT31;67742;51.972;5.682;2023-02-18T03:29:31;12.9;76.5
78448;SHT31;67742;51.972;5.682;2023-02-18T03:32:05;12.9;76.5
78448;SHT31;67742;51.972;5.682;2023-02-18T03:34:39;12.9;76.6
78448;SHT31;67742;51.972;5.682;2023-02-18T03:37:12;12.9;76.6
78448;SHT31;67742;51.972;5.682;2023-02-18T03:39:46;12.9;76.6
78448;SHT31;67742;51.972;5.682;2023-02-18T03:42:17;12.9;76.7
78448;SHT31;67742;51.972;5.682;2023-02-18T03:44:47;12.9;76.7
78448;SHT31;67742;51.972;5.682;2023-02-18T03:47:17;13.0;76.6
78448;SHT31;67742;51.972;5.682;2023-02-18T03:49:48;13.0;76.6
78448;SHT31;67742;51.972;5.682;2023-02-18T03:52:18;13.0;76.5
78448;SHT31;67742;51.972;5.682;2023-02-18T03:54:48;13.0;76.5
78448;SHT31;67742;51.972;5.682;2023-02-18T03:57:17;13.0;76.5
78448;SHT31;67742;51.972;5.682;2023-02-18T03:59:47;13.1;76.3
78448;SHT31;67742;51.972;5.682;2023-02-18T04:02:16;13.1;76.3
78448;SHT31;67742;51.972;5.682;2023-02-18T04:04:46;13.1;76.5
78448;SHT31;67742;51.972;5.682;2023-02-18T04:07:15;13.1;76.4
78448;SHT31;67742;51.972;5.682;2023-02-18T04:09:45;13.1;76.5
78448;SHT31;67742;51.972;5.682;2023-02-18T04:12:14;13.1;76.7
78448;SHT31;67742;51.972;5.682;2023-02-18T04:14:44;13.1;76.5
78448;SHT31;67742;51.972;5.682;2023-02-18T04:17:14;13.1;76.6
78448;SHT31;67742;51.972;5.682;2023-02-18T04:19:43;13.1;76.4
78448;SHT31;67742;51.972;5.682;2023-02-18T04:22:12;13.1;76.4
78448;SHT31;67742;51.972;5.682;2023-02-18T04:24:44;13.1;76.4
78448;SHT31;67742;51.972;5.682;2023-02-18T04:27:13;13.1;76.3
78448;SHT31;67742;51.972;5.682;2023-02-18T04:29:43;13.1;76.3
78448;SHT31;67742;51.972;5.682;2023-02-18T04:32:12;13.1;76.5
78448;SHT31;67742;51.972;5.682;2023-02-18T04:34:42;13.1;76.5
78448;SHT31;67742;51.972;5.682;2023-02-18T04:37:12;13.1;76.5
78448;SHT31;67742;51.972;5.682;2023-02-18T04:39:41;13.1;76.6
78448;SHT31;67742;51.972;5.682;2023-02-18T04:42:11;13.1;76.7
78448;SHT31;67742;51.972;5.682;2023-02-18T04:44:40;13.1;76.7
78448;SHT31;67742;51.972;5.682;2023-02-18T04:47:10;13.1;76.8
78448;SHT31;67742;51.972;5.682;2023-02-18T04:49:41;13.1;76.7
78448;SHT31;67742;51.972;5.682;2023-02-18T04:52:11;13.1;76.7
78448;SHT31;67742;51.972;5.682;2023-02-18T04:54:40;13.1;76.8
78448;SHT31;67742;51.972;5.682;2023-02-18T04:57:10;13.1;76.7
78448;SHT31;67742;51.972;5.682;2023-02-18T04:59:41;13.1;76.7
78448;SHT31;67742;51.972;5.682;2023-02-18T05:02:11;13.1;76.6
78448;SHT31;67742;51.972;5.682;2023-02-18T05:04:40;13.1;76.6
78448;SHT31;67742;51.972;5.682;2023-02-18T05:07:10;13.1;76.6
78448;SHT31;67742;51.972;5.682;2023-02-18T05:09:39;13.1;76.6
78448;SHT31;67742;51.972;5.682;2023-02-18T05:12:09;13.1;76.6
78448;SHT31;67742;51.972;5.682;2023-02-18T05:14:38;13.1;76.5
78448;SHT31;67742;51.972;5.682;2023-02-18T05:17:08;13.1;76.6
78448;SHT31;67742;51.972;5.682;2023-02-18T05:19:37;13.1;76.6
78448;SHT31;67742;51.972;5.682;2023-02-18T05:22:07;13.1;76.6
78448;SHT31;67742;51.972;5.682;2023-02-18T05:24:36;13.1;76.6
78448;SHT31;67742;51.972;5.682;2023-02-18T05:27:07;13.1;76.4
78448;SHT31;67742;51.972;5.682;2023-02-18T05:29:37;13.1;76.4
78448;SHT31;67742;51.972;5.682;2023-02-18T05:32:07;13.1;76.3
78448;SHT31;67742;51.972;5.682;2023-02-18T05:34:36;13.1;76.4
78448;SHT31;67742;51.972;5.682;2023-02-18T05:37:06;13.1;76.4
78448;SHT31;67742;51.972;5.682;2023-02-18T05:39:35;13.1;76.5
78448;SHT31;67742;51.972;5.682;2023-02-18T05:42:05;13.1;76.6
78448;SHT31;67742;51.972;5.682;2023-02-18T05:44:35;13.0;76.3
78448;SHT31;67742;51.972;5.682;2023-02-18T05:47:07;13.0;75.8
78448;SHT31;67742;51.972;5.682;2023-02-18T05:49:41;13.0;75.8
78448;SHT31;67742;51.972;5.682;2023-02-18T05:52:11;13.0;75.8
78448;SHT31;67742;51.972;5.682;2023-02-18T05:54:41;12.9;75.9
78448;SHT31;67742;51.972;5.682;2023-02-18T05:57:12;12.9;75.9
78448;SHT31;67742;51.972;5.682;2023-02-18T05:59:44;12.9;75.9
78448;SHT31;67742;51.972;5.682;2023-02-18T06:02:13;12.9;76.2
78448;SHT31;67742;51.972;5.682;2023-02-18T06:04:43;12.8;76.4
78448;SHT31;67742;51.972;5.682;2023-02-18T06:07:12;12.8;76.5
78448;SHT31;67742;51.972;5.682;2023-02-18T06:09:42;12.8;76.6
78448;SHT31;67742;51.972;5.682;2023-02-18T06:12:12;12.8;76.6
78448;SHT31;67742;51.972;5.682;2023-02-18T06:14:42;12.8;76.5
78448;SHT31;67742;51.972;5.682;2023-02-18T06:17:13;12.8;76.4
78448;SHT31;67742;51.972;5.682;2023-02-18T06:19:45;12.8;76.2
78448;SHT31;67742;51.972;5.682;2023-02-18T06:22:15;12.7;76.4
78448;SHT31;67742;51.972;5.682;2023-02-18T06:24:45;12.7;76.4
78448;SHT31;67742;51.972;5.682;2023-02-18T06:27:18;12.7;76.6
78448;SHT31;67742;51.972;5.682;2023-02-18T06:29:47;12.7;76.6
78448;SHT31;67742;51.972;5.682;2023-02-18T06:32:17;12.7;76.7
78448;SHT31;67742;51.972;5.682;2023-02-18T06:34:46;12.7;76.7
78448;SHT31;67742;51.972;5.682;2023-02-18T06:37:16;12.7;76.8
78448;SHT31;67742;51.972;5.682;2023-02-18T06:39:45;12.7;76.7
78448;SHT31;67742;51.972;5.682;2023-02-18T06:42:15;12.7;76.8
78448;SHT31;67742;51.972;5.682;2023-02-18T06:44:45;12.6;76.9
78448;SHT31;67742;51.972;5.682;2023-02-18T06:47:14;12.6;77.0
78448;SHT31;67742;51.972;5.682;2023-02-18T06:49:44;12.6;77.1
78448;SHT31;67742;51.972;5.682;2023-02-18T06:52:13;12.6;77.0
78448;SHT31;67742;51.972;5.682;2023-02-18T06:54:43;12.7;77.0
78448;SHT31;67742;51.972;5.682;2023-02-18T06:57:13;12.7;76.7
78448;SHT31;67742;51.972;5.682;2023-02-18T06:59:43;12.7;76.7
78448;SHT31;67742;51.972;5.682;2023-02-18T07:02:15;12.7;76.4
78448;SHT31;67742;51.972;5.682;2023-02-18T07:04:44;12.6;76.4
78448;SHT31;67742;51.972;5.682;2023-02-18T07:07:18;12.6;76.5
78448;SHT31;67742;51.972;5.682;2023-02-18T07:09:47;12.6;76.4
78448;SHT31;67742;51.972;5.682;2023-02-18T07:12:17;12.6;76.3
78448;SHT31;67742;51.972;5.682;2023-02-18T07:14:47;12.6;76.2
78448;SHT31;67742;51.972;5.682;2023-02-18T07:17:18;12.6;76.1
78448;SHT31;67742;51.972;5.682;2023-02-18T07:19:47;12.6;75.9
78448;SHT31;67742;51.972;5.682;2023-02-18T07:22:17;12.6;76.1
78448;SHT31;67742;51.972;5.682;2023-02-18T07:24:49;12.6;75.8
78448;SHT31;67742;51.972;5.682;2023-02-18T07:27:20;12.6;75.7
78448;SHT31;67742;51.972;5.682;2023-02-18T07:29:50;12.6;76.0
78448;SHT31;67742;51.972;5.682;2023-02-18T07:32:19;12.6;75.7
78448;SHT31;67742;51.972;5.682;2023-02-18T07:34:50;12.6;75.6
78448;SHT31;67742;51.972;5.682;2023-02-18T07:37:20;12.6;75.7
78448;SHT31;67742;51.972;5.682;2023-02-18T07:39:50;12.6;75.6
78448;SHT31;67742;51.972;5.682;2023-02-18T07:42:19;12.5;75.8
78448;SHT31;67742;51.972;5.682;2023-02-18T07:44:51;12.5;75.8
78448;SHT31;67742;51.972;5.682;2023-02-18T07:47:20;12.5;75.7
78448;SHT31;67742;51.972;5.682;2023-02-18T07:49:50;12.5;75.6
78448;SHT31;67742;51.972;5.682;2023-02-18T07:52:19;12.5;75.2
78448;SHT31;67742;51.972;5.682;2023-02-18T07:54:49;12.5;75.2
78448;SHT31;67742;51.972;5.682;2023-02-18T07:57:18;12.5;75.1
78448;SHT31;67742;51.972;5.682;2023-02-18T07:59:48;12.5;74.9
78448;SHT31;67742;51.972;5.682;2023-02-18T08:02:19;12.5;74.4
78448;SHT31;67742;51.972;5.682;2023-02-18T08:04:50;12.4;74.6
78448;SHT31;67742;51.972;5.682;2023-02-18T08:07:22;12.4;74.4
78448;SHT31;67742;51.972;5.682;2023-02-18T08:09:53;12.4;73.7
78448;SHT31;67742;51.972;5.682;2023-02-18T08:12:23;12.4;73.9
78448;SHT31;67742;51.972;5.682;2023-02-18T08:14:52;12.4;73.8
78448;SHT31;67742;51.972;5.682;2023-02-18T08:17:22;12.4;73.4
78448;SHT31;67742;51.972;5.682;2023-02-18T08:19:51;12.4;73.8
78448;SHT31;67742;51.972;5.682;2023-02-18T08:22:21;12.4;73.3
78448;SHT31;67742;51.972;5.682;2023-02-18T08:24:53;12.4;72.6
78448;SHT31;67742;51.972;5.682;2023-02-18T08:27:23;12.3;73.1
78448;SHT31;67742;51.972;5.682;2023-02-18T08:29:53;12.3;73.2
78448;SHT31;67742;51.972;5.682;2023-02-18T08:32:25;12.4;73.3
78448;SHT31;67742;51.972;5.682;2023-02-18T08:34:55;12.4;73.0
78448;SHT31;67742;51.972;5.682;2023-02-18T08:37:25;12.4;72.9
78448;SHT31;67742;51.972;5.682;2023-02-18T08:39:54;12.4;72.7
78448;SHT31;67742;51.972;5.682;2023-02-18T08:42:24;12.4;72.6
78448;SHT31;67742;51.972;5.682;2023-02-18T08:44:53;12.4;72.5
78448;SHT31;67742;51.972;5.682;2023-02-18T08:47:23;12.4;72.5
78448;SHT31;67742;51.972;5.682;2023-02-18T08:49:53;12.4;71.9
78448;SHT31;67742;51.972;5.682;2023-02-18T08:52:23;12.3;71.8
78448;SHT31;67742;51.972;5.682;2023-02-18T08:54:53;12.3;72.0
78448;SHT31;67742;51.972;5.682;2023-02-18T08:57:23;12.3;72.0
78448;SHT31;67742;51.972;5.682;2023-02-18T08:59:54;12.3;72.3
78448;SHT31;67742;51.972;5.682;2023-02-18T09:02:23;12.2;72.5
78448;SHT31;67742;51.972;5.682;2023-02-18T09:04:55;12.2;72.8
78448;SHT31;67742;51.972;5.682;2023-02-18T09:07:25;12.2;73.0
78448;SHT31;67742;51.972;5.682;2023-02-18T09:09:54;12.2;73.2
78448;SHT31;67742;51.972;5.682;2023-02-18T09:12:23;12.2;73.1
78448;SHT31;67742;51.972;5.682;2023-02-18T09:14:54;12.2;73.1
78448;SHT31;67742;51.972;5.682;2023-02-18T09:17:23;12.1;73.5
78448;SHT31;67742;51.972;5.682;2023-02-18T09:19:53;12.1;73.6
78448;SHT31;67742;51.972;5.682;2023-02-18T09:22:23;12.1;73.6
78448;SHT31;67742;51.972;5.682;2023-02-18T09:24:53;12.1;73.9
78448;SHT31;67742;51.972;5.682;2023-02-18T09:27:22;12.1;74.2
78448;SHT31;67742;51.972;5.682;2023-02-18T09:29:51;12.1;74.1
78448;SHT31;67742;51.972;5.682;2023-02-18T09:32:21;12.1;73.9
78448;SHT31;67742;51.972;5.682;2023-02-18T09:34:50;12.0;74.1
78448;SHT31;67742;51.972;5.682;2023-02-18T09:37:20;12.0;74.1
78448;SHT31;67742;51.972;5.682;2023-02-18T09:39:49;12.0;74.0
78448;SHT31;67742;51.972;5.682;2023-02-18T09:42:26;12.1;74.1
78448;SHT31;67742;51.972;5.682;2023-02-18T09:45:00;12.1;73.7
78448;SHT31;67742;51.972;5.682;2023-02-18T09:47:36;12.1;73.9
78448;SHT31;67742;51.972;5.682;2023-02-18T09:50:16;12.1;73.9
78448;SHT31;67742;51.972;5.682;2023-02-18T09:52:48;12.1;73.3
78448;SHT31;67742;51.972;5.682;2023-02-18T09:55:20;12.1;73.1
78448;SHT31;67742;51.972;5.682;2023-02-18T09:57:53;12.1;73.3
78448;SHT31;67742;51.972;5.682;2023-02-18T10:00:29;12.1;73.4
78448;SHT31;67742;51.972;5.682;2023-02-18T10:03:03;12.1;73.0
78448;SHT31;67742;51.972;5.682;2023-02-18T10:05:35;12.1;72.6
78448;SHT31;67742;51.972;5.682;2023-02-18T10:08:19;12.1;72.6
78448;SHT31;67742;51.972;5.682;2023-02-18T10:10:43;12.1;72.0
78448;SHT31;67742;51.972;5.682;2023-02-18T10:13:17;12.1;71.9
78448;SHT31;67742;51.972;5.682;2023-02-18T10:15:48;12.1;72.2
78448;SHT31;67742;51.972;5.682;2023-02-18T10:18:25;12.1;72.4
78448;SHT31;67742;51.972;5.682;2023-02-18T10:21:02;12.1;72.5
78448;SHT31;67742;51.972;5.682;2023-02-18T10:23:37;12.1;72.9
78448;SHT31;67742;51.972;5.682;2023-02-18T10:26:12;12.1;72.9
78448;SHT31;67742;51.972;5.682;2023-02-18T10:28:43;12.1;72.6
78448;SHT31;67742;51.972;5.682;2023-02-18T10:31:19;12.1;72.4
78448;SHT31;67742;51.972;5.682;2023-02-18T10:34:02;12.1;72.7
78448;SHT31;67742;51.972;5.682;2023-02-18T10:36:43;12.1;72.6
78448;SHT31;67742;51.972;5.682;2023-02-18T10:39:39;12.1;72.8
78448;SHT31;67742;51.972;5.682;2023-02-18T10:42:26;12.1;73.0
78448;SHT31;67742;51.972;5.682;2023-02-18T10:45:05;12.2;73.3
78448;SHT31;67742;51.972;5.682;2023-02-18T10:47:44;12.2;73.5
78448;SHT31;67742;51.972;5.682;2023-02-18T10:50:27;12.2;73.3
78448;SHT31;67742;51.972;5.682;2023-02-18T10:53:01;12.2;73.7
78448;SHT31;67742;51.972;5.682;2023-02-18T10:55:37;12.2;73.6
78448;SHT31;67742;51.972;5.682;2023-02-18T10:58:27;12.2;73.4
78448;SHT31;67742;51.972;5.682;2023-02-18T11:00:59;12.2;73.4
78448;SHT31;67742;51.972;5.682;2023-02-18T11:03:51;12.2;73.6
78448;SHT31;67742;51.972;5.682;2023-02-18T11:06:30;12.2;73.3
78448;SHT31;67742;51.972;5.682;2023-02-18T11:09:01;12.2;73.5
78448;SHT31;67742;51.972;5.682;2023-02-18T11:11:35;12.2;73.4
78448;SHT31;67742;51.972;5.682;2023-02-18T11:14:08;12.2;73.2
78448;SHT31;67742;51.972;5.682;2023-02-18T11:16:43;12.2;73.7
78448;SHT31;67742;51.972;5.682;2023-02-18T11:19:33;12.3;73.4
78448;SHT31;67742;51.972;5.682;2023-02-18T11:22:11;12.3;73.3
78448;SHT31;67742;51.972;5.682;2023-02-18T11:24:45;12.3;73.4
78448;SHT31;67742;51.972;5.682;2023-02-18T11:27:23;12.3;73.3
78448;SHT31;67742;51.972;5.682;2023-02-18T11:29:59;12.3;73.4
78448;SHT31;67742;51.972;5.682;2023-02-18T11:32:33;12.4;73.5
78448;SHT31;67742;51.972;5.682;2023-02-18T11:35:04;12.4;73.5
78448;SHT31;67742;51.972;5.682;2023-02-18T11:37:36;12.4;73.6
78448;SHT31;67742;51.972;5.682;2023-02-18T11:40:20;12.4;73.4
78448;SHT31;67742;51.972;5.682;2023-02-18T11:42:50;12.5;73.2
78448;SHT31;67742;51.972;5.682;2023-02-18T11:45:29;12.5;73.2
78448;SHT31;67742;51.972;5.682;2023-02-18T11:48:05;12.5;72.9
78448;SHT31;67742;51.972;5.682;2023-02-18T11:50:36;12.5;73.0
78448;SHT31;67742;51.972;5.682;2023-02-18T11:53:29;12.6;73.2
78448;SHT31;67742;51.972;5.682;2023-02-18T11:56:01;12.6;73.3
78448;SHT31;67742;51.972;5.682;2023-02-18T11:58:37;12.6;73.3
78448;SHT31;67742;51.972;5.682;2023-02-18T12:01:14;12.7;73.7
78448;SHT31;67742;51.972;5.682;2023-02-18T12:03:53;12.7;73.7
78448;SHT31;67742;51.972;5.682;2023-02-18T12:06:33;12.7;73.6
78448;SHT31;67742;51.972;5.682;2023-02-18T12:09:13;12.8;73.8
78448;SHT31;67742;51.972;5.682;2023-02-18T12:11:45;12.8;73.6
78448;SHT31;67742;51.972;5.682;2023-02-18T12:14:20;12.8;73.9
78448;SHT31;67742;51.972;5.682;2023-02-18T12:17:25;12.8;74.3
78448;SHT31;67742;51.972;5.682;2023-02-18T12:20:17;12.8;73.5
78448;SHT31;67742;51.972;5.682;2023-02-18T12:22:55;12.8;73.3
78448;SHT31;67742;51.972;5.682;2023-02-18T12:25:39;12.8;73.6
78448;SHT31;67742;51.972;5.682;2023-02-18T12:28:27;12.8;73.6
78448;SHT31;67742;51.972;5.682;2023-02-18T12:31:26;12.8;73.0
78448;SHT31;67742;51.972;5.682;2023-02-18T12:34:14;12.8;73.3
78448;SHT31;67742;51.972;5.682;2023-02-18T12:37:00;12.8;73.1
78448;SHT31;67742;51.972;5.682;2023-02-18T12:39:48;12.8;72.6
78448;SHT31;67742;51.972;5.682;2023-02-18T12:42:43;12.8;72.6
78448;SHT31;67742;51.972;5.682;2023-02-18T12:45:30;12.9;72.6
78448;SHT31;67742;51.972;5.682;2023-02-18T12:48:20;12.9;72.6
78448;SHT31;67742;51.972;5.682;2023-02-18T12:51:14;12.9;72.2
78448;SHT31;67742;51.972;5.682;2023-02-18T12:54:00;12.9;72.0
78448;SHT31;67742;51.972;5.682;2023-02-18T12:56:46;12.9;71.9
78448;SHT31;67742;51.972;5.682;2023-02-18T12:59:33;12.9;71.9
78448;SHT31;67742;51.972;5.682;2023-02-18T13:02:18;12.9;71.8
78448;SHT31;67742;51.972;5.682;2023-02-18T13:05:00;12.9;71.8
78448;SHT31;67742;51.972;5.682;2023-02-18T13:08:05;13.0;71.6
78448;SHT31;67742;51.972;5.682;2023-02-18T13:10:55;13.0;71.9
78448;SHT31;67742;51.972;5.682;2023-02-18T13:13:32;13.0;72.0
78448;SHT31;67742;51.972;5.682;2023-02-18T13:16:07;13.0;71.9
78448;SHT31;67742;51.972;5.682;2023-02-18T13:18:43;13.0;71.9
78448;SHT31;67742;51.972;5.682;2023-02-18T13:21:15;13.0;71.9
78448;SHT31;67742;51.972;5.682;2023-02-18T13:23:54;13.0;71.8
78448;SHT31;67742;51.972;5.682;2023-02-18T13:26:26;13.0;71.9
78448;SHT31;67742;51.972;5.682;2023-02-18T13:29:14;13.1;72.1
78448;SHT31;67742;51.972;5.682;2023-02-18T13:31:55;13.1;71.9
78448;SHT31;67742;51.972;5.682;2023-02-18T13:34:35;13.1;71.9
78448;SHT31;67742;51.972;5.682;2023-02-18T13:37:19;13.1;71.8
78448;SHT31;67742;51.972;5.682;2023-02-18T13:39:53;13.2;71.6
78448;SHT31;67742;51.972;5.682;2023-02-18T13:42:41;13.2;71.5
78448;SHT31;67742;51.972;5.682;2023-02-18T13:45:43;13.2;71.6
78448;SHT31;67742;51.972;5.682;2023-02-18T13:48:26;13.3;71.8
78448;SHT31;67742;51.972;5.682;2023-02-18T13:51:03;13.3;71.4
78448;SHT31;67742;51.972;5.682;2023-02-18T13:53:35;13.3;70.9
78448;SHT31;67742;51.972;5.682;2023-02-18T13:56:08;13.4;70.8
78448;SHT31;67742;51.972;5.682;2023-02-18T13:58:47;13.4;70.9
78448;SHT31;67742;51.972;5.682;2023-02-18T14:01:24;13.4;70.3
78448;SHT31;67742;51.972;5.682;2023-02-18T14:04:00;13.4;70.2
78448;SHT31;67742;51.972;5.682;2023-02-18T14:06:33;13.4;70.2
78448;SHT31;67742;51.972;5.682;2023-02-18T14:09:46;13.4;70.3
78448;SHT31;67742;51.972;5.682;2023-02-18T14:12:34;13.4;70.0
78448;SHT31;67742;51.972;5.682;2023-02-18T14:18:20;13.4;70.0
78448;SHT31;67742;51.972;5.682;2023-02-18T14:20:48;13.4;70.0
78448;SHT31;67742;51.972;5.682;2023-02-18T14:24:11;13.4;70.0
78448;SHT31;67742;51.972;5.682;2023-02-18T14:26:45;13.4;70.2
78448;SHT31;67742;51.972;5.682;2023-02-18T14:29:23;13.4;70.0
78448;SHT31;67742;51.972;5.682;2023-02-18T14:31:59;13.4;70.1
78448;SHT31;67742;51.972;5.682;2023-02-18T14:35:07;13.4;70.1
78448;SHT31;67742;51.972;5.682;2023-02-18T14:38:14;13.4;70.1
78448;SHT31;67742;51.972;5.682;2023-02-18T14:41:01;13.5;70.0
78448;SHT31;67742;51.972;5.682;2023-02-18T14:44:35;13.5;70.1
78448;SHT31;67742;51.972;5.682;2023-02-18T14:47:22;13.5;70.0
78448;SHT31;67742;51.972;5.682;2023-02-18T14:49:56;13.5;69.9
78448;SHT31;67742;51.972;5.682;2023-02-18T14:52:33;13.5;70.2
78448;SHT31;67742;51.972;5.682;2023-02-18T14:55:07;13.5;69.9
78448;SHT31;67742;51.972;5.682;2023-02-18T14:57:45;13.5;70.0
78448;SHT31;67742;51.972;5.682;2023-02-18T15:00:20;13.5;70.0
78448;SHT31;67742;51.972;5.682;2023-02-18T15:02:53;13.5;69.8
78448;SHT31;67742;51.972;5.682;2023-02-18T15:05:25;13.5;70.0
78448;SHT31;67742;51.972;5.682;2023-02-18T15:07:59;13.6;69.8
78448;SHT31;67742;51.972;5.682;2023-02-18T15:10:36;13.6;69.9
78448;SHT31;67742;51.972;5.682;2023-02-18T15:13:16;13.6;69.6
78448;SHT31;67742;51.972;5.682;2023-02-18T15:15:51;13.6;69.6
78448;SHT31;67742;51.972;5.682;2023-02-18T15:18:27;13.6;69.3
78448;SHT31;67742;51.972;5.682;2023-02-18T15:20:59;13.6;69.4
78448;SHT31;67742;51.972;5.682;2023-02-18T15:23:33;13.6;69.4
78448;SHT31;67742;51.972;5.682;2023-02-18T15:26:05;13.6;69.4
78448;SHT31;67742;51.972;5.682;2023-02-18T15:28:49;13.6;69.4
78448;SHT31;67742;51.972;5.682;2023-02-18T15:31:16;13.6;69.3
78448;SHT31;67742;51.972;5.682;2023-02-18T15:33:46;13.7;69.2
78448;SHT31;67742;51.972;5.682;2023-02-18T15:36:16;13.7;69.3
78448;SHT31;67742;51.972;5.682;2023-02-18T15:38:46;13.7;69.2
78448;SHT31;67742;51.972;5.682;2023-02-18T15:41:19;13.7;69.1
78448;SHT31;67742;51.972;5.682;2023-02-18T15:43:55;13.7;69.3
78448;SHT31;67742;51.972;5.682;2023-02-18T15:46:28;13.7;69.3
78448;SHT31;67742;51.972;5.682;2023-02-18T15:48:59;13.7;69.1
78448;SHT31;67742;51.972;5.682;2023-02-18T15:51:31;13.7;69.1
78448;SHT31;67742;51.972;5.682;2023-02-18T15:54:02;13.7;69.1
78448;SHT31;67742;51.972;5.682;2023-02-18T15:56:35;13.7;69.0
78448;SHT31;67742;51.972;5.682;2023-02-18T15:59:18;13.6;69.1
78448;SHT31;67742;51.972;5.682;2023-02-18T16:01:52;13.6;69.2
78448;SHT31;67742;51.972;5.682;2023-02-18T16:04:31;13.6;69.0
78448;SHT31;67742;51.972;5.682;2023-02-18T16:07:19;13.6;69.2
78448;SHT31;67742;51.972;5.682;2023-02-18T16:09:39;13.6;69.2
78448;SHT31;67742;51.972;5.682;2023-02-18T16:12:20;13.6;69.3
78448;SHT31;67742;51.972;5.682;2023-02-18T16:14:54;13.6;69.3
78448;SHT31;67742;51.972;5.682;2023-02-18T16:17:26;13.6;69.2
78448;SHT31;67742;51.972;5.682;2023-02-18T16:19:58;13.6;69.2
78448;SHT31;67742;51.972;5.682;2023-02-18T16:22:35;13.6;69.2
78448;SHT31;67742;51.972;5.682;2023-02-18T16:25:14;13.6;69.2
78448;SHT31;67742;51.972;5.682;2023-02-18T16:27:51;13.6;69.3
78448;SHT31;67742;51.972;5.682;2023-02-18T16:30:24;13.6;69.3
78448;SHT31;67742;51.972;5.682;2023-02-18T16:32:56;13.6;69.3
78448;SHT31;67742;51.972;5.682;2023-02-18T16:35:29;13.6;69.2
78448;SHT31;67742;51.972;5.682;2023-02-18T16:37:59;13.5;69.2
78448;SHT31;67742;51.972;5.682;2023-02-18T16:40:32;13.5;69.2
78448;SHT31;67742;51.972;5.682;2023-02-18T16:43:13;13.5;69.4
78448;SHT31;67742;51.972;5.682;2023-02-18T16:45:46;13.5;69.4
78448;SHT31;67742;51.972;5.682;2023-02-18T16:48:29;13.5;69.3
78448;SHT31;67742;51.972;5.682;2023-02-18T16:51:02;13.5;69.3
78448;SHT31;67742;51.972;5.682;2023-02-18T16:53:33;13.5;69.3
78448;SHT31;67742;51.972;5.682;2023-02-18T16:56:03;13.5;69.3
78448;SHT31;67742;51.972;5.682;2023-02-18T16:58:32;13.5;69.4